Vertentes, Brazil
Current Conditions -  °F | °C
As of 6:00 AM on Friday 19 Dec 2014 (Local Time) from SBKG Reporting Station
Broken Clouds Broken Clouds  
Wind Chill: 72°   Ceiling: 1500
Heat Index: 72°   Visibility: 6mi
Dew Point: 70°   Wind: 12mph
Humidity: 94%   Direction: 80°E
Pressure: 29.94"   Gusts: NA
Location:  7.9°S, 35.99°W
Report Text: SBKG 190900Z 08010KT 9999 SCT004 BKN015 22/21 Q1014
Loading
Personal Weather Stations






























Interactive Weather Map New forecast layout! Learn more

10-Day Weather Forecast

Advertisements
Track Severe Weather on mobile